createdAt,value
2019-01-13T00:00:43.560Z,94775.70
2019-01-13T00:03:13.255Z,94776.30
2019-01-13T00:05:42.959Z,94774.41
2019-01-13T00:08:12.408Z,94774.72
2019-01-13T00:28:04.939Z,94783.88
2019-01-13T00:30:34.632Z,94784.02
2019-01-13T00:33:04.011Z,94784.72
2019-01-13T00:35:33.844Z,94775.41
2019-01-13T00:38:04.220Z,94783.98
2019-01-13T00:40:33.808Z,94772.48
2019-01-13T00:43:03.196Z,94770.30
2019-01-13T00:45:32.790Z,94775.83
2019-01-13T00:48:02.447Z,94762.87
2019-01-13T00:50:32.157Z,94767.41
2019-01-13T00:53:01.901Z,94765.27
2019-01-13T00:55:31.492Z,94755.30
2019-01-13T00:58:01.125Z,94752.13
2019-01-13T01:00:30.932Z,94751.45
2019-01-13T01:03:01.485Z,94749.89
2019-01-13T01:05:31.101Z,94754.24
2019-01-13T01:08:00.635Z,94757.73
2019-01-13T01:10:30.299Z,94750.52
2019-01-13T01:12:59.667Z,94738.80
2019-01-13T01:15:29.216Z,94737.84
2019-01-13T01:17:58.773Z,94741.52
2019-01-13T01:37:50.911Z,94718.78
2019-01-13T01:40:21.691Z,94708.16
2019-01-13T01:42:51.440Z,94709.88
2019-01-13T01:45:21.739Z,94702.88
2019-01-13T01:47:51.366Z,94696.73
2019-01-13T01:50:21.042Z,94691.56
2019-01-13T01:52:50.647Z,94694.12
2019-01-13T02:12:42.527Z,94666.73
2019-01-13T02:15:15.484Z,94673.13
2019-01-13T02:17:45.360Z,94669.62
2019-01-13T02:20:16.067Z,94657.47
2019-01-13T02:22:45.843Z,94654.55
2019-01-13T02:25:16.815Z,94653.53
2019-01-13T02:27:46.270Z,94655.77
2019-01-13T02:47:37.260Z,94647.81
2019-01-13T02:50:06.964Z,94651.91
2019-01-13T03:09:59.205Z,94657.89
2019-01-13T03:12:28.980Z,94655.84
2019-01-13T03:14:58.519Z,94649.63
2019-01-13T03:17:27.995Z,94654.79
2019-01-13T03:19:57.588Z,94650.73
2019-01-13T03:22:27.276Z,94643.55
2019-01-13T03:24:56.972Z,94651.13
2019-01-13T03:27:26.780Z,94642.42
2019-01-13T03:29:56.277Z,94650.43
2019-01-13T03:49:47.434Z,94653.47
2019-01-13T03:52:17.135Z,94652.22
2019-01-13T03:54:46.880Z,94660.94
2019-01-13T03:57:16.662Z,94660.20
2019-01-13T03:59:46.257Z,94665.39
2019-01-13T04:02:16.408Z,94662.30
2019-01-13T04:22:08.541Z,94670.66
2019-01-13T04:24:38.151Z,94665.39
2019-01-13T04:29:45.316Z,94671.22
2019-01-13T04:32:14.861Z,94671.84
2019-01-13T04:34:44.472Z,94670.59
2019-01-13T04:37:13.990Z,94660.45
2019-01-13T04:39:43.547Z,94666.20
2019-01-13T04:42:13.314Z,94665.66
2019-01-13T04:44:42.808Z,94666.69
2019-01-13T04:47:12.278Z,94663.50
2019-01-13T04:49:41.599Z,94661.56
2019-01-13T04:52:11.412Z,94655.45
2019-01-13T04:54:41.136Z,94652.95
2019-01-13T04:57:11.356Z,94653.06
2019-01-13T04:59:41.067Z,94655.52
2019-01-13T05:02:10.656Z,94650.02
2019-01-13T05:04:40.400Z,94646.11
2019-01-13T05:07:09.874Z,94651.31
2019-01-13T05:09:39.964Z,94651.61
2019-01-13T05:12:10.039Z,94649.19
2019-01-13T05:14:39.621Z,94648.16
2019-01-13T05:17:09.351Z,94641.06
2019-01-13T05:19:39.075Z,94643.66
2019-01-13T05:22:08.762Z,94646.55
2019-01-13T05:24:38.478Z,94645.52
2019-01-13T05:27:08.172Z,94648.45
2019-01-13T05:29:37.573Z,94632.17
2019-01-13T05:32:07.212Z,94631.03
2019-01-13T05:34:36.724Z,94637.14
2019-01-13T05:37:06.115Z,94634.17
2019-01-13T05:39:35.825Z,94629.79
2019-01-13T05:42:05.307Z,94626.56
2019-01-13T05:44:35.036Z,94623.20
2019-01-13T05:47:04.597Z,94623.38
2019-01-13T05:49:34.181Z,94613.32
2019-01-13T05:52:03.549Z,94619.50
2019-01-13T05:54:33.234Z,94619.36
2019-01-13T05:57:02.899Z,94610.70
2019-01-13T05:59:32.576Z,94606.88
2019-01-13T06:02:02.011Z,94612.30
2019-01-13T06:04:31.807Z,94609.41
2019-01-13T06:07:01.598Z,94607.55
2019-01-13T06:09:31.308Z,94616.19
2019-01-13T06:12:00.978Z,94613.50
2019-01-13T06:14:30.619Z,94612.61
2019-01-13T06:17:00.620Z,94609.16
2019-01-13T06:19:30.251Z,94609.70
2019-01-13T06:21:59.848Z,94611.95
2019-01-13T06:24:29.497Z,94611.52
2019-01-13T06:26:58.975Z,94606.17
2019-01-13T06:29:28.588Z,94604.81
2019-01-13T06:31:58.430Z,94606.68
2019-01-13T06:34:28.151Z,94602.46
2019-01-13T06:36:57.613Z,94612.92
2019-01-13T06:39:27.416Z,94599.58
2019-01-13T06:41:56.928Z,94594.86
2019-01-13T06:44:26.466Z,94599.85
2019-01-13T06:46:56.343Z,94600.09
2019-01-13T06:49:26.017Z,94603.78
2019-01-13T06:51:56.260Z,94610.06
2019-01-13T06:54:26.218Z,94608.11
2019-01-13T06:56:55.875Z,94608.78
2019-01-13T06:59:25.470Z,94594.44
2019-01-13T07:01:55.153Z,94604.87
2019-01-13T07:04:24.861Z,94605.74
2019-01-13T07:06:54.628Z,94597.76
2019-01-13T07:09:24.732Z,94591.68
2019-01-13T07:11:54.768Z,94594.88
2019-01-13T07:14:24.738Z,94600.24
2019-01-13T07:16:54.199Z,94591.77
2019-01-13T07:19:25.043Z,94587.79
2019-01-13T07:21:54.821Z,94584.19
2019-01-13T07:24:24.371Z,94586.03
2019-01-13T07:26:54.037Z,94591.83
2019-01-13T07:29:23.688Z,94590.54
2019-01-13T07:31:53.262Z,94588.46
2019-01-13T07:34:22.701Z,94587.64
2019-01-13T07:36:52.404Z,94584.16
2019-01-13T07:39:22.139Z,94585.12
2019-01-13T07:41:51.820Z,94592.39
2019-01-13T07:44:21.595Z,94602.45
2019-01-13T07:46:51.409Z,94617.23
2019-01-13T07:49:21.167Z,94600.75
2019-01-13T07:51:52.599Z,94607.64
2019-01-13T07:54:24.530Z,94601.42
2019-01-13T07:56:54.321Z,94607.45
2019-01-13T07:59:23.932Z,94608.48
2019-01-13T08:01:53.785Z,94614.84
2019-01-13T08:04:23.537Z,94615.64
2019-01-13T08:06:53.319Z,94614.42
2019-01-13T08:09:22.766Z,94616.61
2019-01-13T08:11:52.565Z,94614.59
2019-01-13T08:14:22.158Z,94616.17
2019-01-13T08:16:51.909Z,94621.24
2019-01-13T08:19:22.442Z,94625.94
2019-01-13T08:21:51.997Z,94623.08
2019-01-13T08:24:21.807Z,94618.55
2019-01-13T08:26:51.562Z,94622.19
2019-01-13T08:29:22.050Z,94625.81
2019-01-13T08:31:51.793Z,94619.10
2019-01-13T08:34:21.774Z,94624.72
2019-01-13T08:36:51.287Z,94622.05
2019-01-13T08:39:20.821Z,94618.94
2019-01-13T08:41:50.739Z,94617.10
2019-01-13T08:44:20.329Z,94603.86
2019-01-13T08:46:50.829Z,94606.34
2019-01-13T08:49:20.578Z,94602.56
2019-01-13T08:51:50.415Z,94601.70
2019-01-13T08:54:20.314Z,94596.52
2019-01-13T08:56:49.976Z,94588.12
2019-01-13T08:59:19.477Z,94580.80
2019-01-13T09:01:49.472Z,94575.38
2019-01-13T09:04:19.361Z,94578.81
2019-01-13T09:06:49.075Z,94568.97
2019-01-13T09:09:18.870Z,94565.09
2019-01-13T09:11:48.435Z,94561.06
2019-01-13T09:14:18.273Z,94554.16
2019-01-13T09:16:48.069Z,94547.85
2019-01-13T09:20:20.820Z,94545.56
2019-01-13T09:22:50.460Z,94529.57
2019-01-13T09:25:20.571Z,94530.15
2019-01-13T09:27:50.464Z,94520.34
2019-01-13T09:30:22.830Z,94510.23
2019-01-13T09:32:52.541Z,94502.92
2019-01-13T09:35:22.318Z,94494.45
2019-01-13T09:37:52.323Z,94496.08
2019-01-13T09:40:24.904Z,94489.85
2019-01-13T09:42:54.705Z,94481.59
2019-01-13T09:45:24.595Z,94483.69
2019-01-13T09:47:54.159Z,94480.08
2019-01-13T09:50:23.979Z,94471.52
2019-01-13T09:52:53.775Z,94471.47
2019-01-13T09:55:23.981Z,94466.53
2019-01-13T09:57:53.563Z,94457.91
2019-01-13T10:00:25.531Z,94456.72
2019-01-13T10:02:55.237Z,94455.15
2019-01-13T10:05:24.831Z,94445.16
2019-01-13T10:07:54.750Z,94445.44
2019-01-13T10:10:24.259Z,94435.63
2019-01-13T10:12:54.473Z,94432.26
2019-01-13T10:15:23.939Z,94439.65
2019-01-13T10:17:53.604Z,94443.86
2019-01-13T10:20:23.407Z,94436.66
2019-01-13T10:22:53.072Z,94427.30
2019-01-13T10:25:22.619Z,94432.70
2019-01-13T10:27:52.103Z,94427.52
2019-01-13T10:30:27.007Z,94426.53
2019-01-13T10:32:56.545Z,94423.45
2019-01-13T10:35:26.298Z,94416.83
2019-01-13T10:37:55.958Z,94411.31
2019-01-13T10:40:27.636Z,94408.12
2019-01-13T10:42:57.397Z,94400.00
2019-01-13T10:45:27.608Z,94402.24
2019-01-13T10:47:57.715Z,94399.64
2019-01-13T10:50:29.752Z,94399.47
2019-01-13T10:53:01.860Z,94395.55
2019-01-13T10:55:32.030Z,94392.13
2019-01-13T10:58:01.831Z,94376.92
2019-01-13T11:00:35.303Z,94386.42
2019-01-13T11:03:12.280Z,94375.61
2019-01-13T11:05:42.924Z,94379.80
2019-01-13T11:08:12.495Z,94377.31
2019-01-13T11:10:42.243Z,94374.76
2019-01-13T11:13:11.886Z,94373.20
2019-01-13T11:15:41.595Z,94369.21
2019-01-13T11:18:11.464Z,94366.63
2019-01-13T11:20:41.419Z,94362.81
2019-01-13T11:23:11.826Z,94355.97
2019-01-13T11:25:41.536Z,94359.59
2019-01-13T11:28:11.383Z,94362.19
2019-01-13T11:30:41.065Z,94364.85
2019-01-13T11:33:10.661Z,94362.12
2019-01-13T11:35:40.383Z,94363.30
2019-01-13T11:38:10.789Z,94368.76
2019-01-13T11:40:40.446Z,94365.98
2019-01-13T11:43:11.246Z,94367.02
2019-01-13T11:45:39.691Z,94364.12
2019-01-13T11:48:09.388Z,94359.53
2019-01-13T11:50:38.996Z,94368.58
2019-01-13T11:53:08.452Z,94366.49
2019-01-13T11:55:38.387Z,94370.73
2019-01-13T11:58:07.972Z,94375.26
2019-01-13T12:00:42.802Z,94367.22
2019-01-13T12:03:16.831Z,94371.84
2019-01-13T12:05:42.534Z,94374.45
2019-01-13T12:08:12.580Z,94371.73
2019-01-13T12:10:42.076Z,94369.86
2019-01-13T12:13:11.643Z,94369.64
2019-01-13T12:15:41.120Z,94367.41
2019-01-13T12:18:10.692Z,94364.83
2019-01-13T12:20:40.131Z,94362.96
2019-01-13T12:23:09.875Z,94364.55
2019-01-13T12:25:39.426Z,94366.38
2019-01-13T12:28:09.283Z,94368.41
2019-01-13T12:30:38.780Z,94363.94
2019-01-13T12:33:08.517Z,94351.41
2019-01-13T12:35:38.211Z,94362.92
2019-01-13T12:38:08.038Z,94361.84
2019-01-13T12:40:37.776Z,94357.97
2019-01-13T12:43:07.820Z,94355.17
2019-01-13T12:45:37.984Z,94352.58
2019-01-13T12:48:07.602Z,94343.55
2019-01-13T12:50:37.165Z,94348.70
2019-01-13T12:53:06.523Z,94338.91
2019-01-13T12:55:36.132Z,94341.95
2019-01-13T12:58:05.774Z,94334.84
2019-01-13T13:00:35.599Z,94333.08
2019-01-13T13:03:04.987Z,94334.30
2019-01-13T13:05:34.554Z,94334.69
2019-01-13T13:08:04.073Z,94334.00
2019-01-13T13:10:39.923Z,94325.03
2019-01-13T13:13:09.592Z,94324.88
2019-01-13T13:15:39.031Z,94321.14
2019-01-13T13:18:08.570Z,94314.27
2019-01-13T13:20:38.343Z,94315.11
2019-01-13T13:23:08.033Z,94321.52
2019-01-13T13:25:37.339Z,94322.77
2019-01-13T13:28:07.291Z,94310.57
2019-01-13T13:30:37.087Z,94292.41
2019-01-13T13:33:06.734Z,94299.89
2019-01-13T13:35:40.035Z,94288.14
2019-01-13T13:38:06.172Z,94288.05
2019-01-13T13:40:35.598Z,94284.31
2019-01-13T13:43:05.332Z,94284.05
2019-01-13T13:45:34.982Z,94284.27
2019-01-13T13:48:04.562Z,94290.77
2019-01-13T13:50:34.203Z,94283.16
2019-01-13T13:53:03.771Z,94277.72
2019-01-13T13:55:33.586Z,94273.84
2019-01-13T13:58:03.301Z,94274.06
2019-01-13T14:00:35.088Z,94287.47
2019-01-13T14:03:05.091Z,94275.05
2019-01-13T14:05:35.043Z,94278.08
2019-01-13T14:08:04.551Z,94278.45
2019-01-13T14:10:38.689Z,94278.86
2019-01-13T14:13:08.519Z,94272.41
2019-01-13T14:15:38.157Z,94275.97
2019-01-13T14:18:07.711Z,94271.20
2019-01-13T14:20:37.542Z,94273.27
2019-01-13T14:23:07.232Z,94281.56
2019-01-13T14:25:36.835Z,94277.06
2019-01-13T14:28:06.579Z,94278.03
2019-01-13T14:30:36.182Z,94280.31
2019-01-13T14:33:05.690Z,94276.91
2019-01-13T14:35:35.459Z,94281.30
2019-01-13T14:38:05.039Z,94274.54
2019-01-13T14:40:34.689Z,94276.91
2019-01-13T14:43:04.229Z,94278.80
2019-01-13T14:45:33.787Z,94276.26
2019-01-13T14:48:03.182Z,94279.55
2019-01-13T14:50:33.836Z,94270.67
2019-01-13T14:53:03.928Z,94263.40
2019-01-13T14:55:33.860Z,94266.84
2019-01-13T14:58:03.315Z,94264.94
2019-01-13T15:00:33.536Z,94268.77
2019-01-13T15:03:03.329Z,94274.20
2019-01-13T15:05:33.200Z,94266.98
2019-01-13T15:08:02.772Z,94270.39
2019-01-13T15:10:32.578Z,94272.14
2019-01-13T15:13:02.064Z,94271.34
2019-01-13T15:15:31.728Z,94278.49
2019-01-13T15:18:01.224Z,94272.72
2019-01-13T15:20:31.622Z,94265.33
2019-01-13T15:23:01.561Z,94267.23
2019-01-13T15:25:31.670Z,94263.73
2019-01-13T15:28:01.337Z,94265.61
2019-01-13T15:30:34.056Z,94268.92
2019-01-13T15:33:05.408Z,94267.30
2019-01-13T15:35:35.314Z,94266.48
2019-01-13T15:38:05.188Z,94261.42
2019-01-13T15:40:35.048Z,94257.70
2019-01-13T15:43:05.583Z,94257.33
2019-01-13T15:45:35.087Z,94259.95
2019-01-13T15:48:05.340Z,94254.87
2019-01-13T15:50:34.893Z,94259.79
2019-01-13T15:53:04.333Z,94266.43
2019-01-13T15:55:33.959Z,94260.88
2019-01-13T15:58:03.284Z,94270.45
2019-01-13T16:00:34.753Z,94269.16
2019-01-13T16:03:05.357Z,94173.95
2019-01-13T16:05:35.191Z,94262.53
2019-01-13T16:08:04.681Z,94261.09
2019-01-13T16:10:34.135Z,94265.02
2019-01-13T16:13:03.603Z,94258.67
2019-01-13T16:15:34.658Z,94261.13
2019-01-13T16:18:10.294Z,94254.48
2019-01-13T16:20:41.374Z,94263.19
2019-01-13T16:23:11.407Z,94260.36
2019-01-13T16:25:41.266Z,94260.83
2019-01-13T16:28:11.321Z,94261.48
2019-01-13T16:30:41.116Z,94266.84
2019-01-13T16:33:10.650Z,94261.59
2019-01-13T16:35:40.326Z,94200.70
2019-01-13T16:38:10.859Z,94250.42
2019-01-13T16:40:40.881Z,94251.06
2019-01-13T16:43:10.499Z,94250.75
2019-01-13T16:45:40.254Z,94253.70
2019-01-13T16:48:09.896Z,94252.35
2019-01-13T16:50:39.402Z,94242.98
2019-01-13T16:53:10.087Z,94245.02
2019-01-13T16:55:40.057Z,94237.92
2019-01-13T16:58:09.729Z,94245.53
2019-01-13T17:00:39.690Z,94237.58
2019-01-13T17:03:09.462Z,94235.91
2019-01-13T17:05:39.051Z,94236.09
2019-01-13T17:08:08.945Z,94220.16
2019-01-13T17:10:38.654Z,94221.48
2019-01-13T17:13:08.370Z,94220.53
2019-01-13T17:15:38.738Z,94221.27
2019-01-13T17:18:09.436Z,94227.39
2019-01-13T17:20:39.448Z,94229.97
2019-01-13T17:23:10.081Z,94231.13
2019-01-13T17:25:39.789Z,94233.13
2019-01-13T17:28:09.724Z,94226.64
2019-01-13T17:30:40.376Z,94236.95
2019-01-13T17:33:10.114Z,94226.02
2019-01-13T17:35:39.770Z,94230.28
2019-01-13T17:38:09.373Z,94225.56
2019-01-13T17:40:39.073Z,94213.73
2019-01-13T17:43:11.068Z,94224.50
2019-01-13T17:45:40.609Z,94219.45
2019-01-13T17:48:10.812Z,94228.84
2019-01-13T17:50:40.641Z,94208.93
2019-01-13T17:53:10.675Z,94213.84
2019-01-13T17:55:40.428Z,94211.42
2019-01-13T17:58:11.576Z,94210.78
2019-01-13T18:01:00.808Z,94214.31
2019-01-13T18:03:35.030Z,94208.11
2019-01-13T18:06:04.557Z,94212.80
2019-01-13T18:08:34.086Z,94214.43
2019-01-13T18:11:03.558Z,94215.72
2019-01-13T18:13:33.207Z,94211.42
2019-01-13T18:16:02.710Z,94211.45
2019-01-13T18:18:32.663Z,94209.53
2019-01-13T18:21:02.258Z,94215.50
2019-01-13T18:23:31.981Z,94207.71
2019-01-13T18:26:01.498Z,94205.45
2019-01-13T18:28:31.241Z,94201.95
2019-01-13T18:31:01.042Z,94208.97
2019-01-13T18:33:30.891Z,94202.95
2019-01-13T18:36:00.404Z,94202.43
2019-01-13T18:38:30.621Z,94203.66
2019-01-13T18:41:00.349Z,94203.36
2019-01-13T18:43:30.086Z,94207.45
2019-01-13T18:46:00.422Z,94206.30
2019-01-13T18:48:30.067Z,94199.17
2019-01-13T18:50:59.582Z,94200.47
2019-01-13T18:53:29.324Z,94193.36
2019-01-13T18:55:58.817Z,94203.05
2019-01-13T18:58:28.203Z,94202.55
2019-01-13T19:00:57.547Z,94201.44
2019-01-13T19:03:28.204Z,94199.74
2019-01-13T19:05:57.022Z,94206.00
2019-01-13T19:08:26.622Z,94198.23
2019-01-13T19:11:03.369Z,94198.78
2019-01-13T19:13:52.319Z,94198.39
2019-01-13T19:16:22.034Z,94187.27
2019-01-13T19:18:51.818Z,94193.98
2019-01-13T19:21:21.240Z,94190.78
2019-01-13T19:23:50.712Z,94184.89
2019-01-13T19:26:20.221Z,94183.88
2019-01-13T19:28:49.692Z,94183.60
2019-01-13T19:31:19.574Z,94186.03
2019-01-13T19:33:49.172Z,94179.11
2019-01-13T19:36:18.659Z,94174.40
2019-01-13T19:38:48.048Z,94168.41
2019-01-13T19:41:17.431Z,94163.78
2019-01-13T19:43:46.869Z,94163.35
2019-01-13T19:46:16.314Z,94169.24
2019-01-13T19:48:45.690Z,94158.95
2019-01-13T19:51:15.063Z,94153.86
2019-01-13T19:53:44.459Z,94156.72
2019-01-13T19:56:13.970Z,94151.40
2019-01-13T19:58:43.329Z,94159.44
2019-01-13T20:01:12.718Z,94153.22
2019-01-13T20:03:42.082Z,94151.77
2019-01-13T20:06:11.640Z,94148.88
2019-01-13T20:08:41.218Z,94143.52
2019-01-13T20:11:10.684Z,94143.52
2019-01-13T20:13:40.166Z,94144.97
2019-01-13T20:16:09.759Z,94139.59
2019-01-13T20:18:39.244Z,94128.30
2019-01-13T20:21:08.680Z,94133.28
2019-01-13T20:23:38.152Z,94130.23
2019-01-13T20:26:07.915Z,94122.23
2019-01-13T20:28:37.205Z,94123.39
2019-01-13T20:31:06.572Z,94123.49
2019-01-13T20:33:35.917Z,94104.05
2019-01-13T20:36:05.581Z,94116.48
2019-01-13T20:38:35.049Z,94115.88
2019-01-13T20:41:05.737Z,94119.95
2019-01-13T20:43:35.354Z,94121.83
2019-01-13T20:46:05.023Z,94108.20
2019-01-13T20:48:34.393Z,94105.28
2019-01-13T20:51:04.078Z,94098.06
2019-01-13T20:53:33.531Z,94098.45
2019-01-13T20:56:03.062Z,94094.59
2019-01-13T20:58:32.700Z,94091.54
2019-01-13T21:01:02.083Z,94088.80
2019-01-13T21:03:31.515Z,94087.33
2019-01-13T21:06:01.099Z,94083.58
2019-01-13T21:08:30.676Z,94078.03
2019-01-13T21:11:00.149Z,94077.72
2019-01-13T21:13:29.635Z,94071.66
2019-01-13T21:15:59.223Z,94071.94
2019-01-13T21:18:28.644Z,94066.13
2019-01-13T21:20:58.309Z,94066.72
2019-01-13T21:23:27.847Z,94057.95
2019-01-13T21:25:57.549Z,94060.12
2019-01-13T21:28:27.131Z,94053.63
2019-01-13T21:30:56.631Z,94057.08
2019-01-13T21:33:26.127Z,94048.22
2019-01-13T21:35:55.474Z,94049.19
2019-01-13T21:38:25.101Z,94050.78
2019-01-13T21:40:54.548Z,94047.03
2019-01-13T21:43:24.091Z,94038.25
2019-01-13T21:45:53.548Z,94037.84
2019-01-13T21:48:23.072Z,94024.78
2019-01-13T21:50:52.602Z,94021.55
2019-01-13T21:53:22.100Z,94014.45
2019-01-13T21:55:51.560Z,94014.77
2019-01-13T21:58:21.270Z,94005.75
2019-01-13T22:00:50.679Z,94007.72
2019-01-13T22:03:20.245Z,94010.59
2019-01-13T22:05:49.712Z,94003.59
2019-01-13T22:08:19.244Z,94000.75
2019-01-13T22:10:48.791Z,93999.06
2019-01-13T22:13:18.490Z,93990.85
2019-01-13T22:15:47.877Z,93985.13
2019-01-13T22:18:17.413Z,93983.07
2019-01-13T22:20:47.129Z,93980.12
2019-01-13T22:23:17.194Z,93964.53
2019-01-13T22:25:45.898Z,93960.82
2019-01-13T22:28:15.623Z,93961.10
2019-01-13T22:30:45.027Z,93956.56
2019-01-13T22:33:14.406Z,93951.45
2019-01-13T22:35:48.128Z,93955.88
2019-01-13T22:38:13.499Z,93951.83
2019-01-13T22:40:42.879Z,93947.81
2019-01-13T22:43:12.333Z,93950.77
2019-01-13T22:45:41.797Z,93947.80
2019-01-13T22:48:11.275Z,93938.73
2019-01-13T22:50:40.763Z,93932.80
2019-01-13T22:53:10.376Z,93926.91
2019-01-13T22:55:39.674Z,93920.48
2019-01-13T22:58:09.013Z,93917.44
2019-01-13T23:01:42.846Z,93913.20
2019-01-13T23:04:13.878Z,93919.30
2019-01-13T23:06:43.325Z,93914.48
2019-01-13T23:09:13.609Z,93911.14
2019-01-13T23:11:43.139Z,93905.41
2019-01-13T23:14:12.621Z,93905.20
2019-01-13T23:16:42.061Z,93898.80
2019-01-13T23:19:11.761Z,93899.80
2019-01-13T23:21:41.047Z,93903.05
2019-01-13T23:24:10.450Z,93890.81
2019-01-13T23:26:39.915Z,93894.66
2019-01-13T23:29:09.354Z,93886.09
2019-01-13T23:31:38.729Z,93882.34
2019-01-13T23:34:08.262Z,93882.05
2019-01-13T23:36:37.763Z,93882.26
2019-01-13T23:39:08.763Z,93881.43
2019-01-13T23:41:38.207Z,93876.33
2019-01-13T23:44:07.709Z,93879.86
2019-01-13T23:46:37.139Z,93880.28
2019-01-13T23:49:06.519Z,93875.23
2019-01-13T23:51:35.944Z,93887.44
2019-01-13T23:54:05.495Z,93884.32
2019-01-13T23:56:34.854Z,93881.23
2019-01-13T23:59:04.218Z,93884.02
